sensor_id;sensor_type;location;lat;lon;timestamp;P1;durP1;ratioP1;P2;durP2;ratioP2
75499;SDS011;64076;51.466;7.260;2023-04-25T00:00:41;5.72;;;3.15;;
75499;SDS011;64076;51.466;7.260;2023-04-25T00:03:06;6.20;;;3.10;;
75499;SDS011;64076;51.466;7.260;2023-04-25T00:05:33;5.70;;;3.17;;
75499;SDS011;64076;51.466;7.260;2023-04-25T00:08:02;5.72;;;3.20;;
75499;SDS011;64076;51.466;7.260;2023-04-25T00:10:28;5.77;;;2.97;;
75499;SDS011;64076;51.466;7.260;2023-04-25T00:12:53;6.57;;;3.10;;
75499;SDS011;64076;51.466;7.260;2023-04-25T00:15:19;6.50;;;3.37;;
75499;SDS011;64076;51.466;7.260;2023-04-25T00:17:44;6.23;;;3.50;;
75499;SDS011;64076;51.466;7.260;2023-04-25T00:20:10;6.88;;;3.55;;
75499;SDS011;64076;51.466;7.260;2023-04-25T00:22:36;6.28;;;3.60;;
75499;SDS011;64076;51.466;7.260;2023-04-25T00:25:03;5.87;;;3.50;;
75499;SDS011;64076;51.466;7.260;2023-04-25T00:27:30;6.80;;;3.30;;
75499;SDS011;64076;51.466;7.260;2023-04-25T00:29:55;7.32;;;3.65;;
75499;SDS011;64076;51.466;7.260;2023-04-25T00:32:21;5.77;;;3.20;;
75499;SDS011;64076;51.466;7.260;2023-04-25T00:34:47;6.00;;;3.00;;
75499;SDS011;64076;51.466;7.260;2023-04-25T00:37:12;5.47;;;3.00;;
75499;SDS011;64076;51.466;7.260;2023-04-25T00:39:38;6.47;;;3.80;;
75499;SDS011;64076;51.466;7.260;2023-04-25T00:42:03;6.55;;;3.40;;
75499;SDS011;64076;51.466;7.260;2023-04-25T00:44:30;6.63;;;3.30;;
75499;SDS011;64076;51.466;7.260;2023-04-25T00:46:57;6.03;;;3.85;;
75499;SDS011;64076;51.466;7.260;2023-04-25T00:49:22;6.47;;;3.30;;
75499;SDS011;64076;51.466;7.260;2023-04-25T00:51:48;5.63;;;3.10;;
75499;SDS011;64076;51.466;7.260;2023-04-25T00:54:14;6.75;;;3.38;;
75499;SDS011;64076;51.466;7.260;2023-04-25T00:56:40;6.68;;;3.65;;
75499;SDS011;64076;51.466;7.260;2023-04-25T00:59:09;5.47;;;3.00;;
75499;SDS011;64076;51.466;7.260;2023-04-25T01:01:35;7.40;;;3.50;;
75499;SDS011;64076;51.466;7.260;2023-04-25T01:04:02;6.80;;;3.90;;
75499;SDS011;64076;51.466;7.260;2023-04-25T01:06:28;5.07;;;3.23;;
75499;SDS011;64076;51.466;7.260;2023-04-25T01:08:53;7.38;;;3.42;;
75499;SDS011;64076;51.466;7.260;2023-04-25T01:11:19;5.47;;;3.53;;
75499;SDS011;64076;51.466;7.260;2023-04-25T01:13:45;5.97;;;3.42;;
75499;SDS011;64076;51.466;7.260;2023-04-25T01:16:11;6.43;;;3.60;;
75499;SDS011;64076;51.466;7.260;2023-04-25T01:18:38;7.78;;;3.83;;
75499;SDS011;64076;51.466;7.260;2023-04-25T01:21:08;9.30;;;3.85;;
75499;SDS011;64076;51.466;7.260;2023-04-25T01:23:35;5.83;;;4.07;;
75499;SDS011;64076;51.466;7.260;2023-04-25T01:26:01;6.80;;;3.90;;
75499;SDS011;64076;51.466;7.260;2023-04-25T01:28:28;5.50;;;3.58;;
75499;SDS011;64076;51.466;7.260;2023-04-25T01:30:53;5.78;;;3.65;;
75499;SDS011;64076;51.466;7.260;2023-04-25T01:33:19;5.87;;;3.63;;
75499;SDS011;64076;51.466;7.260;2023-04-25T01:35:46;6.25;;;3.75;;
75499;SDS011;64076;51.466;7.260;2023-04-25T01:38:12;5.55;;;3.60;;
75499;SDS011;64076;51.466;7.260;2023-04-25T01:40:38;8.43;;;3.80;;
75499;SDS011;64076;51.466;7.260;2023-04-25T01:43:06;5.30;;;3.30;;
75499;SDS011;64076;51.466;7.260;2023-04-25T01:45:33;5.90;;;3.70;;
75499;SDS011;64076;51.466;7.260;2023-04-25T01:48:04;7.15;;;4.00;;
75499;SDS011;64076;51.466;7.260;2023-04-25T01:50:30;6.30;;;3.83;;
75499;SDS011;64076;51.466;7.260;2023-04-25T01:52:55;5.87;;;3.57;;
75499;SDS011;64076;51.466;7.260;2023-04-25T01:55:21;6.82;;;3.97;;
75499;SDS011;64076;51.466;7.260;2023-04-25T01:57:47;5.85;;;3.90;;
75499;SDS011;64076;51.466;7.260;2023-04-25T02:00:12;6.27;;;3.30;;
75499;SDS011;64076;51.466;7.260;2023-04-25T02:02:38;5.93;;;3.73;;
75499;SDS011;64076;51.466;7.260;2023-04-25T02:05:04;6.47;;;4.28;;
75499;SDS011;64076;51.466;7.260;2023-04-25T02:07:30;6.75;;;3.80;;
75499;SDS011;64076;51.466;7.260;2023-04-25T02:09:56;5.87;;;3.43;;
75499;SDS011;64076;51.466;7.260;2023-04-25T02:12:22;6.03;;;3.85;;
75499;SDS011;64076;51.466;7.260;2023-04-25T02:14:47;8.47;;;4.40;;
75499;SDS011;64076;51.466;7.260;2023-04-25T02:17:13;5.23;;;3.63;;
75499;SDS011;64076;51.466;7.260;2023-04-25T02:19:38;5.43;;;3.87;;
75499;SDS011;64076;51.466;7.260;2023-04-25T02:22:04;5.70;;;3.70;;
75499;SDS011;64076;51.466;7.260;2023-04-25T02:24:30;6.53;;;3.58;;
75499;SDS011;64076;51.466;7.260;2023-04-25T02:26:56;5.65;;;3.95;;
75499;SDS011;64076;51.466;7.260;2023-04-25T02:29:22;5.33;;;3.97;;
75499;SDS011;64076;51.466;7.260;2023-04-25T02:31:48;5.85;;;4.00;;
75499;SDS011;64076;51.466;7.260;2023-04-25T02:34:14;8.30;;;4.80;;
75499;SDS011;64076;51.466;7.260;2023-04-25T02:36:39;6.77;;;4.30;;
75499;SDS011;64076;51.466;7.260;2023-04-25T02:39:05;6.80;;;4.28;;
75499;SDS011;64076;51.466;7.260;2023-04-25T02:41:30;6.80;;;4.40;;
75499;SDS011;64076;51.466;7.260;2023-04-25T02:43:56;7.55;;;4.10;;
75499;SDS011;64076;51.466;7.260;2023-04-25T02:46:22;6.80;;;4.23;;
75499;SDS011;64076;51.466;7.260;2023-04-25T02:48:47;7.40;;;4.38;;
75499;SDS011;64076;51.466;7.260;2023-04-25T02:51:13;5.67;;;4.00;;
75499;SDS011;64076;51.466;7.260;2023-04-25T02:53:38;6.93;;;4.40;;
75499;SDS011;64076;51.466;7.260;2023-04-25T02:56:04;7.10;;;4.53;;
75499;SDS011;64076;51.466;7.260;2023-04-25T02:58:30;6.07;;;4.37;;
75499;SDS011;64076;51.466;7.260;2023-04-25T03:00:55;6.38;;;4.10;;
75499;SDS011;64076;51.466;7.260;2023-04-25T03:03:21;7.57;;;4.10;;
75499;SDS011;64076;51.466;7.260;2023-04-25T03:05:50;6.13;;;3.97;;
75499;SDS011;64076;51.466;7.260;2023-04-25T03:08:16;6.45;;;4.38;;
75499;SDS011;64076;51.466;7.260;2023-04-25T03:10:42;7.03;;;4.40;;
75499;SDS011;64076;51.466;7.260;2023-04-25T03:13:16;6.63;;;4.40;;
75499;SDS011;64076;51.466;7.260;2023-04-25T03:15:41;5.87;;;4.10;;
75499;SDS011;64076;51.466;7.260;2023-04-25T03:18:07;7.55;;;4.45;;
75499;SDS011;64076;51.466;7.260;2023-04-25T03:20:32;6.87;;;4.20;;
75499;SDS011;64076;51.466;7.260;2023-04-25T03:22:58;6.10;;;4.33;;
75499;SDS011;64076;51.466;7.260;2023-04-25T03:25:23;6.05;;;4.10;;
75499;SDS011;64076;51.466;7.260;2023-04-25T03:27:49;7.20;;;4.37;;
75499;SDS011;64076;51.466;7.260;2023-04-25T03:30:15;6.67;;;4.33;;
75499;SDS011;64076;51.466;7.260;2023-04-25T03:32:40;7.00;;;4.15;;
75499;SDS011;64076;51.466;7.260;2023-04-25T03:35:06;6.57;;;3.80;;
75499;SDS011;64076;51.466;7.260;2023-04-25T03:37:31;7.57;;;4.20;;
75499;SDS011;64076;51.466;7.260;2023-04-25T03:39:57;6.20;;;4.10;;
75499;SDS011;64076;51.466;7.260;2023-04-25T03:42:22;5.60;;;4.17;;
75499;SDS011;64076;51.466;7.260;2023-04-25T03:44:48;7.60;;;3.87;;
75499;SDS011;64076;51.466;7.260;2023-04-25T03:47:14;5.73;;;3.83;;
75499;SDS011;64076;51.466;7.260;2023-04-25T03:49:40;7.07;;;4.20;;
75499;SDS011;64076;51.466;7.260;2023-04-25T03:52:06;6.95;;;4.50;;
75499;SDS011;64076;51.466;7.260;2023-04-25T03:54:32;6.73;;;4.40;;
75499;SDS011;64076;51.466;7.260;2023-04-25T03:56:57;7.30;;;4.30;;
75499;SDS011;64076;51.466;7.260;2023-04-25T03:59:23;6.83;;;4.00;;
75499;SDS011;64076;51.466;7.260;2023-04-25T04:01:49;5.65;;;3.78;;
75499;SDS011;64076;51.466;7.260;2023-04-25T04:04:15;7.23;;;4.03;;
75499;SDS011;64076;51.466;7.260;2023-04-25T04:06:40;7.73;;;4.10;;
75499;SDS011;64076;51.466;7.260;2023-04-25T04:09:07;7.55;;;4.55;;
75499;SDS011;64076;51.466;7.260;2023-04-25T04:11:35;6.32;;;4.32;;
75499;SDS011;64076;51.466;7.260;2023-04-25T04:14:03;7.25;;;4.75;;
75499;SDS011;64076;51.466;7.260;2023-04-25T04:16:32;8.13;;;4.57;;
75499;SDS011;64076;51.466;7.260;2023-04-25T04:18:57;6.57;;;3.80;;
75499;SDS011;64076;51.466;7.260;2023-04-25T04:21:23;6.10;;;3.90;;
75499;SDS011;64076;51.466;7.260;2023-04-25T04:23:48;5.80;;;3.97;;
75499;SDS011;64076;51.466;7.260;2023-04-25T04:26:14;6.43;;;3.97;;
75499;SDS011;64076;51.466;7.260;2023-04-25T04:28:41;6.93;;;4.15;;
75499;SDS011;64076;51.466;7.260;2023-04-25T04:31:09;7.13;;;4.10;;
75499;SDS011;64076;51.466;7.260;2023-04-25T04:33:35;6.63;;;3.87;;
75499;SDS011;64076;51.466;7.260;2023-04-25T04:36:01;7.47;;;4.35;;
75499;SDS011;64076;51.466;7.260;2023-04-25T04:38:28;7.18;;;3.92;;
75499;SDS011;64076;51.466;7.260;2023-04-25T04:40:54;6.32;;;4.13;;
75499;SDS011;64076;51.466;7.260;2023-04-25T04:43:19;6.67;;;4.10;;
75499;SDS011;64076;51.466;7.260;2023-04-25T04:45:45;7.65;;;4.20;;
75499;SDS011;64076;51.466;7.260;2023-04-25T04:48:11;6.07;;;4.30;;
75499;SDS011;64076;51.466;7.260;2023-04-25T04:50:39;5.65;;;3.80;;
75499;SDS011;64076;51.466;7.260;2023-04-25T04:53:05;7.15;;;4.05;;
75499;SDS011;64076;51.466;7.260;2023-04-25T04:55:30;6.63;;;3.60;;
75499;SDS011;64076;51.466;7.260;2023-04-25T04:57:56;6.55;;;3.80;;
75499;SDS011;64076;51.466;7.260;2023-04-25T05:00:22;5.63;;;3.70;;
75499;SDS011;64076;51.466;7.260;2023-04-25T05:02:47;6.47;;;3.40;;
75499;SDS011;64076;51.466;7.260;2023-04-25T05:05:13;6.50;;;3.77;;
75499;SDS011;64076;51.466;7.260;2023-04-25T05:07:38;6.33;;;3.80;;
75499;SDS011;64076;51.466;7.260;2023-04-25T05:10:04;6.30;;;4.05;;
75499;SDS011;64076;51.466;7.260;2023-04-25T05:12:30;5.43;;;3.10;;
75499;SDS011;64076;51.466;7.260;2023-04-25T05:14:56;6.72;;;2.97;;
75499;SDS011;64076;51.466;7.260;2023-04-25T05:17:22;4.13;;;2.50;;
75499;SDS011;64076;51.466;7.260;2023-04-25T05:19:47;4.22;;;2.20;;
75499;SDS011;64076;51.466;7.260;2023-04-25T05:22:13;4.07;;;2.57;;
75499;SDS011;64076;51.466;7.260;2023-04-25T05:24:38;4.07;;;2.33;;
75499;SDS011;64076;51.466;7.260;2023-04-25T05:27:04;3.97;;;2.45;;
75499;SDS011;64076;51.466;7.260;2023-04-25T05:29:30;4.35;;;2.15;;
75499;SDS011;64076;51.466;7.260;2023-04-25T05:31:56;3.43;;;2.03;;
75499;SDS011;64076;51.466;7.260;2023-04-25T05:34:21;3.33;;;2.00;;
75499;SDS011;64076;51.466;7.260;2023-04-25T05:36:47;2.97;;;1.70;;
75499;SDS011;64076;51.466;7.260;2023-04-25T05:39:14;2.80;;;1.90;;
75499;SDS011;64076;51.466;7.260;2023-04-25T05:41:43;3.63;;;1.88;;
75499;SDS011;64076;51.466;7.260;2023-04-25T05:44:08;2.92;;;1.67;;
75499;SDS011;64076;51.466;7.260;2023-04-25T05:46:34;3.07;;;1.80;;
75499;SDS011;64076;51.466;7.260;2023-04-25T05:49:00;2.92;;;1.60;;
75499;SDS011;64076;51.466;7.260;2023-04-25T05:51:25;3.10;;;1.77;;
75499;SDS011;64076;51.466;7.260;2023-04-25T05:53:52;3.03;;;1.52;;
75499;SDS011;64076;51.466;7.260;2023-04-25T05:56:18;2.53;;;1.53;;
75499;SDS011;64076;51.466;7.260;2023-04-25T05:58:43;2.53;;;1.60;;
75499;SDS011;64076;51.466;7.260;2023-04-25T06:01:09;2.50;;;1.50;;
75499;SDS011;64076;51.466;7.260;2023-04-25T06:03:34;2.57;;;1.50;;
75499;SDS011;64076;51.466;7.260;2023-04-25T06:06:00;2.87;;;1.70;;
75499;SDS011;64076;51.466;7.260;2023-04-25T06:08:25;3.27;;;1.60;;
75499;SDS011;64076;51.466;7.260;2023-04-25T06:10:51;2.63;;;1.55;;
75499;SDS011;64076;51.466;7.260;2023-04-25T06:13:17;2.43;;;1.43;;
75499;SDS011;64076;51.466;7.260;2023-04-25T06:15:42;2.37;;;1.50;;
75499;SDS011;64076;51.466;7.260;2023-04-25T06:18:08;2.70;;;1.45;;
75499;SDS011;64076;51.466;7.260;2023-04-25T06:20:33;2.70;;;1.60;;
75499;SDS011;64076;51.466;7.260;2023-04-25T06:22:59;2.60;;;1.60;;
75499;SDS011;64076;51.466;7.260;2023-04-25T06:25:24;2.30;;;1.40;;
75499;SDS011;64076;51.466;7.260;2023-04-25T06:27:50;3.40;;;1.50;;
75499;SDS011;64076;51.466;7.260;2023-04-25T06:30:16;3.15;;;1.40;;
75499;SDS011;64076;51.466;7.260;2023-04-25T06:32:47;2.47;;;1.42;;
75499;SDS011;64076;51.466;7.260;2023-04-25T06:35:12;2.63;;;1.80;;
75499;SDS011;64076;51.466;7.260;2023-04-25T06:37:38;3.03;;;1.50;;
75499;SDS011;64076;51.466;7.260;2023-04-25T06:40:03;2.72;;;1.60;;
75499;SDS011;64076;51.466;7.260;2023-04-25T06:42:30;2.37;;;1.50;;
75499;SDS011;64076;51.466;7.260;2023-04-25T06:44:56;2.33;;;1.50;;
75499;SDS011;64076;51.466;7.260;2023-04-25T06:47:22;2.83;;;1.60;;
75499;SDS011;64076;51.466;7.260;2023-04-25T06:49:48;2.65;;;1.70;;
75499;SDS011;64076;51.466;7.260;2023-04-25T06:52:14;2.60;;;1.30;;
75499;SDS011;64076;51.466;7.260;2023-04-25T06:54:40;2.50;;;1.60;;
75499;SDS011;64076;51.466;7.260;2023-04-25T06:57:05;3.50;;;1.77;;
75499;SDS011;64076;51.466;7.260;2023-04-25T06:59:31;2.83;;;1.70;;
75499;SDS011;64076;51.466;7.260;2023-04-25T07:01:57;3.10;;;2.03;;
75499;SDS011;64076;51.466;7.260;2023-04-25T07:04:23;3.80;;;2.17;;
75499;SDS011;64076;51.466;7.260;2023-04-25T07:06:49;3.65;;;1.67;;
75499;SDS011;64076;51.466;7.260;2023-04-25T07:09:15;2.63;;;1.45;;
75499;SDS011;64076;51.466;7.260;2023-04-25T07:11:41;3.20;;;1.70;;
75499;SDS011;64076;51.466;7.260;2023-04-25T07:14:07;4.43;;;1.95;;
75499;SDS011;64076;51.466;7.260;2023-04-25T07:16:33;3.13;;;1.70;;
75499;SDS011;64076;51.466;7.260;2023-04-25T07:18:59;3.88;;;1.70;;
75499;SDS011;64076;51.466;7.260;2023-04-25T07:21:25;3.10;;;2.07;;
75499;SDS011;64076;51.466;7.260;2023-04-25T07:23:51;3.87;;;1.70;;
75499;SDS011;64076;51.466;7.260;2023-04-25T07:26:17;4.68;;;1.95;;
75499;SDS011;64076;51.466;7.260;2023-04-25T07:28:43;3.40;;;1.85;;
75499;SDS011;64076;51.466;7.260;2023-04-25T07:31:09;4.05;;;1.80;;
75499;SDS011;64076;51.466;7.260;2023-04-25T07:33:35;3.63;;;1.60;;
75499;SDS011;64076;51.466;7.260;2023-04-25T07:36:01;3.13;;;1.50;;
75499;SDS011;64076;51.466;7.260;2023-04-25T07:38:27;3.38;;;1.40;;
75499;SDS011;64076;51.466;7.260;2023-04-25T07:40:53;3.50;;;1.80;;
75499;SDS011;64076;51.466;7.260;2023-04-25T07:43:19;3.27;;;1.70;;
75499;SDS011;64076;51.466;7.260;2023-04-25T07:45:45;3.05;;;1.40;;
75499;SDS011;64076;51.466;7.260;2023-04-25T07:48:16;3.25;;;1.42;;
75499;SDS011;64076;51.466;7.260;2023-04-25T07:50:43;3.10;;;1.40;;
75499;SDS011;64076;51.466;7.260;2023-04-25T07:53:09;2.27;;;1.40;;
75499;SDS011;64076;51.466;7.260;2023-04-25T07:55:35;2.60;;;1.10;;
75499;SDS011;64076;51.466;7.260;2023-04-25T07:58:04;3.03;;;1.50;;
75499;SDS011;64076;51.466;7.260;2023-04-25T08:13:56;2.50;;;1.17;;
75499;SDS011;64076;51.466;7.260;2023-04-25T08:16:22;2.90;;;1.33;;
75499;SDS011;64076;51.466;7.260;2023-04-25T08:18:49;3.15;;;1.20;;
75499;SDS011;64076;51.466;7.260;2023-04-25T08:21:15;2.90;;;1.25;;
75499;SDS011;64076;51.466;7.260;2023-04-25T08:23:41;3.67;;;1.33;;
75499;SDS011;64076;51.466;7.260;2023-04-25T08:26:07;2.10;;;1.00;;
75499;SDS011;64076;51.466;7.260;2023-04-25T08:28:33;2.83;;;1.00;;
75499;SDS011;64076;51.466;7.260;2023-04-25T08:30:59;2.80;;;1.05;;
75499;SDS011;64076;51.466;7.260;2023-04-25T08:33:25;2.15;;;1.00;;
75499;SDS011;64076;51.466;7.260;2023-04-25T08:35:51;2.17;;;0.90;;
75499;SDS011;64076;51.466;7.260;2023-04-25T08:38:18;3.17;;;1.25;;
75499;SDS011;64076;51.466;7.260;2023-04-25T08:40:44;2.92;;;1.13;;
75499;SDS011;64076;51.466;7.260;2023-04-25T08:51:02;3.20;;;1.15;;
75499;SDS011;64076;51.466;7.260;2023-04-25T08:53:32;2.33;;;0.80;;
75499;SDS011;64076;51.466;7.260;2023-04-25T08:55:59;2.83;;;1.13;;
75499;SDS011;64076;51.466;7.260;2023-04-25T08:58:27;2.63;;;1.27;;
75499;SDS011;64076;51.466;7.260;2023-04-25T09:00:53;1.93;;;0.90;;
75499;SDS011;64076;51.466;7.260;2023-04-25T09:03:19;2.35;;;1.00;;
75499;SDS011;64076;51.466;7.260;2023-04-25T09:05:45;2.90;;;1.00;;
75499;SDS011;64076;51.466;7.260;2023-04-25T09:08:11;2.00;;;0.80;;
75499;SDS011;64076;51.466;7.260;2023-04-25T09:10:38;2.22;;;0.90;;
75499;SDS011;64076;51.466;7.260;2023-04-25T09:13:09;2.57;;;0.90;;
75499;SDS011;64076;51.466;7.260;2023-04-25T09:15:49;1.92;;;0.70;;
75499;SDS011;64076;51.466;7.260;2023-04-25T09:18:26;2.15;;;0.90;;
75499;SDS011;64076;51.466;7.260;2023-04-25T09:20:52;2.03;;;0.80;;
75499;SDS011;64076;51.466;7.260;2023-04-25T09:23:19;1.60;;;0.73;;
75499;SDS011;64076;51.466;7.260;2023-04-25T09:25:47;2.60;;;0.93;;
75499;SDS011;64076;51.466;7.260;2023-04-25T09:28:13;2.08;;;0.70;;
75499;SDS011;64076;51.466;7.260;2023-04-25T09:30:39;2.40;;;0.80;;
75499;SDS011;64076;51.466;7.260;2023-04-25T09:33:05;2.00;;;0.80;;
75499;SDS011;64076;51.466;7.260;2023-04-25T09:35:39;2.63;;;0.93;;
75499;SDS011;64076;51.466;7.260;2023-04-25T09:38:11;2.00;;;0.80;;
75499;SDS011;64076;51.466;7.260;2023-04-25T09:40:46;2.20;;;1.00;;
75499;SDS011;64076;51.466;7.260;2023-04-25T09:43:21;2.15;;;0.73;;
75499;SDS011;64076;51.466;7.260;2023-04-25T09:45:47;2.10;;;0.80;;
75499;SDS011;64076;51.466;7.260;2023-04-25T09:48:20;2.08;;;0.85;;
75499;SDS011;64076;51.466;7.260;2023-04-25T09:53:35;2.15;;;0.80;;
75499;SDS011;64076;51.466;7.260;2023-04-25T09:56:03;1.50;;;0.77;;
75499;SDS011;64076;51.466;7.260;2023-04-25T09:58:30;2.13;;;0.65;;
75499;SDS011;64076;51.466;7.260;2023-04-25T10:00:58;2.22;;;0.73;;
75499;SDS011;64076;51.466;7.260;2023-04-25T10:03:25;1.90;;;0.80;;
75499;SDS011;64076;51.466;7.260;2023-04-25T10:05:51;1.40;;;0.70;;
75499;SDS011;64076;51.466;7.260;2023-04-25T10:08:18;2.05;;;0.73;;
75499;SDS011;64076;51.466;7.260;2023-04-25T10:10:46;1.40;;;0.60;;
75499;SDS011;64076;51.466;7.260;2023-04-25T10:13:12;2.53;;;0.80;;
75499;SDS011;64076;51.466;7.260;2023-04-25T10:15:39;2.73;;;0.80;;
75499;SDS011;64076;51.466;7.260;2023-04-25T10:18:06;1.77;;;0.70;;
75499;SDS011;64076;51.466;7.260;2023-04-25T10:20:32;2.08;;;0.93;;
75499;SDS011;64076;51.466;7.260;2023-04-25T10:23:02;3.75;;;0.93;;
75499;SDS011;64076;51.466;7.260;2023-04-25T10:25:29;2.05;;;0.70;;
75499;SDS011;64076;51.466;7.260;2023-04-25T10:27:56;1.67;;;0.77;;
75499;SDS011;64076;51.466;7.260;2023-04-25T10:30:21;2.00;;;0.90;;
75499;SDS011;64076;51.466;7.260;2023-04-25T10:32:47;1.45;;;0.60;;
75499;SDS011;64076;51.466;7.260;2023-04-25T10:35:16;1.98;;;0.80;;
75499;SDS011;64076;51.466;7.260;2023-04-25T10:37:56;2.20;;;0.67;;
75499;SDS011;64076;51.466;7.260;2023-04-25T10:40:22;1.50;;;0.60;;
75499;SDS011;64076;51.466;7.260;2023-04-25T10:42:48;2.22;;;0.65;;
75499;SDS011;64076;51.466;7.260;2023-04-25T10:45:14;1.58;;;0.70;;
75499;SDS011;64076;51.466;7.260;2023-04-25T10:47:43;2.23;;;0.70;;
75499;SDS011;64076;51.466;7.260;2023-04-25T10:50:10;1.50;;;0.60;;
75499;SDS011;64076;51.466;7.260;2023-04-25T10:52:38;2.15;;;0.70;;
75499;SDS011;64076;51.466;7.260;2023-04-25T10:55:07;1.42;;;0.50;;
75499;SDS011;64076;51.466;7.260;2023-04-25T10:57:38;1.60;;;0.50;;
75499;SDS011;64076;51.466;7.260;2023-04-25T11:02:49;1.38;;;0.50;;
75499;SDS011;64076;51.466;7.260;2023-04-25T11:05:23;1.17;;;0.50;;
75499;SDS011;64076;51.466;7.260;2023-04-25T11:07:50;2.67;;;0.73;;
75499;SDS011;64076;51.466;7.260;2023-04-25T11:10:16;1.52;;;0.52;;
75499;SDS011;64076;51.466;7.260;2023-04-25T11:12:43;2.13;;;0.70;;
75499;SDS011;64076;51.466;7.260;2023-04-25T11:15:10;1.50;;;0.77;;
75499;SDS011;64076;51.466;7.260;2023-04-25T11:17:36;2.10;;;0.70;;
75499;SDS011;64076;51.466;7.260;2023-04-25T11:20:04;1.83;;;0.55;;
75499;SDS011;64076;51.466;7.260;2023-04-25T11:22:36;1.50;;;0.55;;
75499;SDS011;64076;51.466;7.260;2023-04-25T11:25:06;2.53;;;0.63;;
75499;SDS011;64076;51.466;7.260;2023-04-25T11:27:32;2.17;;;0.60;;
75499;SDS011;64076;51.466;7.260;2023-04-25T11:30:09;1.77;;;0.60;;
75499;SDS011;64076;51.466;7.260;2023-04-25T11:32:35;2.17;;;0.73;;
75499;SDS011;64076;51.466;7.260;2023-04-25T11:35:01;3.25;;;0.52;;
75499;SDS011;64076;51.466;7.260;2023-04-25T11:37:27;1.97;;;0.50;;
75499;SDS011;64076;51.466;7.260;2023-04-25T11:39:53;2.47;;;0.60;;
75499;SDS011;64076;51.466;7.260;2023-04-25T11:42:19;3.45;;;0.82;;
75499;SDS011;64076;51.466;7.260;2023-04-25T11:44:45;4.47;;;0.80;;
75499;SDS011;64076;51.466;7.260;2023-04-25T11:47:11;5.30;;;0.60;;
75499;SDS011;64076;51.466;7.260;2023-04-25T11:49:37;3.05;;;0.70;;
75499;SDS011;64076;51.466;7.260;2023-04-25T11:52:05;2.13;;;0.50;;
75499;SDS011;64076;51.466;7.260;2023-04-25T11:54:34;2.53;;;0.52;;
75499;SDS011;64076;51.466;7.260;2023-04-25T11:57:00;1.80;;;0.47;;
75499;SDS011;64076;51.466;7.260;2023-04-25T11:59:26;1.58;;;0.55;;
75499;SDS011;64076;51.466;7.260;2023-04-25T12:01:52;1.77;;;0.60;;
75499;SDS011;64076;51.466;7.260;2023-04-25T12:04:22;3.15;;;0.70;;
75499;SDS011;64076;51.466;7.260;2023-04-25T12:06:49;1.77;;;0.50;;
75499;SDS011;64076;51.466;7.260;2023-04-25T12:09:17;1.57;;;0.40;;
75499;SDS011;64076;51.466;7.260;2023-04-25T12:11:47;1.63;;;0.52;;
75499;SDS011;64076;51.466;7.260;2023-04-25T12:14:23;1.40;;;0.63;;
75499;SDS011;64076;51.466;7.260;2023-04-25T12:16:51;1.50;;;0.50;;
75499;SDS011;64076;51.466;7.260;2023-04-25T12:19:17;2.00;;;0.52;;
75499;SDS011;64076;51.466;7.260;2023-04-25T12:21:44;1.30;;;0.50;;
75499;SDS011;64076;51.466;7.260;2023-04-25T12:24:10;1.30;;;0.50;;
75499;SDS011;64076;51.466;7.260;2023-04-25T12:26:53;2.97;;;0.50;;
75499;SDS011;64076;51.466;7.260;2023-04-25T12:29:25;2.00;;;0.50;;
75499;SDS011;64076;51.466;7.260;2023-04-25T12:31:52;4.63;;;0.95;;
75499;SDS011;64076;51.466;7.260;2023-04-25T12:34:19;3.70;;;0.67;;
75499;SDS011;64076;51.466;7.260;2023-04-25T12:36:45;2.83;;;0.80;;
75499;SDS011;64076;51.466;7.260;2023-04-25T12:39:29;1.58;;;0.55;;
75499;SDS011;64076;51.466;7.260;2023-04-25T12:41:55;1.80;;;0.52;;
75499;SDS011;64076;51.466;7.260;2023-04-25T12:44:21;2.67;;;0.60;;
75499;SDS011;64076;51.466;7.260;2023-04-25T12:46:47;1.63;;;1.00;;
75499;SDS011;64076;51.466;7.260;2023-04-25T12:49:13;2.72;;;0.80;;
75499;SDS011;64076;51.466;7.260;2023-04-25T12:51:39;2.40;;;0.70;;
75499;SDS011;64076;51.466;7.260;2023-04-25T12:54:06;6.10;;;0.80;;
75499;SDS011;64076;51.466;7.260;2023-04-25T12:56:33;5.03;;;0.73;;
75499;SDS011;64076;51.466;7.260;2023-04-25T12:58:59;2.93;;;0.50;;
75499;SDS011;64076;51.466;7.260;2023-04-25T13:01:25;3.33;;;0.50;;
75499;SDS011;64076;51.466;7.260;2023-04-25T13:03:51;3.85;;;0.80;;
75499;SDS011;64076;51.466;7.260;2023-04-25T13:06:18;5.25;;;0.50;;
75499;SDS011;64076;51.466;7.260;2023-04-25T13:08:44;2.27;;;0.57;;
75499;SDS011;64076;51.466;7.260;2023-04-25T13:11:10;4.00;;;0.60;;
75499;SDS011;64076;51.466;7.260;2023-04-25T13:13:36;3.35;;;0.60;;
75499;SDS011;64076;51.466;7.260;2023-04-25T13:16:03;3.88;;;0.60;;
75499;SDS011;64076;51.466;7.260;2023-04-25T13:18:30;1.83;;;0.40;;
75499;SDS011;64076;51.466;7.260;2023-04-25T13:20:56;2.20;;;0.50;;
75499;SDS011;64076;51.466;7.260;2023-04-25T13:23:23;5.10;;;0.70;;
75499;SDS011;64076;51.466;7.260;2023-04-25T13:25:49;1.38;;;0.47;;
75499;SDS011;64076;51.466;7.260;2023-04-25T13:28:15;2.67;;;0.65;;
75499;SDS011;64076;51.466;7.260;2023-04-25T13:30:41;2.77;;;0.60;;
75499;SDS011;64076;51.466;7.260;2023-04-25T13:33:07;4.00;;;0.70;;
75499;SDS011;64076;51.466;7.260;2023-04-25T13:35:33;2.13;;;0.80;;
75499;SDS011;64076;51.466;7.260;2023-04-25T13:38:00;2.08;;;0.77;;
75499;SDS011;64076;51.466;7.260;2023-04-25T13:40:26;1.73;;;0.93;;
75499;SDS011;64076;51.466;7.260;2023-04-25T13:42:52;2.07;;;0.50;;
75499;SDS011;64076;51.466;7.260;2023-04-25T13:45:19;1.80;;;0.60;;
75499;SDS011;64076;51.466;7.260;2023-04-25T13:47:45;5.35;;;0.70;;
75499;SDS011;64076;51.466;7.260;2023-04-25T13:50:11;1.63;;;0.50;;
75499;SDS011;64076;51.466;7.260;2023-04-25T13:52:38;2.33;;;0.60;;
75499;SDS011;64076;51.466;7.260;2023-04-25T13:55:04;1.70;;;0.60;;
75499;SDS011;64076;51.466;7.260;2023-04-25T13:57:32;1.75;;;0.50;;
75499;SDS011;64076;51.466;7.260;2023-04-25T13:59:58;2.17;;;0.80;;
75499;SDS011;64076;51.466;7.260;2023-04-25T14:02:24;2.42;;;0.63;;
75499;SDS011;64076;51.466;7.260;2023-04-25T14:04:50;3.75;;;0.60;;
75499;SDS011;64076;51.466;7.260;2023-04-25T14:07:17;1.60;;;0.60;;
75499;SDS011;64076;51.466;7.260;2023-04-25T14:09:44;2.72;;;0.70;;
75499;SDS011;64076;51.466;7.260;2023-04-25T14:12:10;1.67;;;0.45;;
75499;SDS011;64076;51.466;7.260;2023-04-25T14:14:36;2.33;;;0.50;;
75499;SDS011;64076;51.466;7.260;2023-04-25T14:17:02;2.67;;;0.70;;
75499;SDS011;64076;51.466;7.260;2023-04-25T14:19:29;1.10;;;0.50;;
75499;SDS011;64076;51.466;7.260;2023-04-25T14:21:55;1.63;;;0.38;;
75499;SDS011;64076;51.466;7.260;2023-04-25T14:24:21;1.10;;;0.45;;
75499;SDS011;64076;51.466;7.260;2023-04-25T14:26:47;1.17;;;0.40;;
75499;SDS011;64076;51.466;7.260;2023-04-25T14:29:13;2.95;;;0.60;;
75499;SDS011;64076;51.466;7.260;2023-04-25T14:31:39;1.20;;;0.40;;
75499;SDS011;64076;51.466;7.260;2023-04-25T14:34:06;1.17;;;0.43;;
75499;SDS011;64076;51.466;7.260;2023-04-25T14:36:32;2.15;;;0.60;;
75499;SDS011;64076;51.466;7.260;2023-04-25T14:38:58;1.50;;;0.40;;
75499;SDS011;64076;51.466;7.260;2023-04-25T14:41:24;1.77;;;0.60;;
75499;SDS011;64076;51.466;7.260;2023-04-25T14:43:51;0.97;;;0.27;;
75499;SDS011;64076;51.466;7.260;2023-04-25T14:46:18;1.42;;;0.60;;
75499;SDS011;64076;51.466;7.260;2023-04-25T14:48:43;1.30;;;0.50;;
75499;SDS011;64076;51.466;7.260;2023-04-25T14:51:10;1.85;;;0.55;;
75499;SDS011;64076;51.466;7.260;2023-04-25T14:53:36;1.37;;;0.40;;
75499;SDS011;64076;51.466;7.260;2023-04-25T14:56:02;1.03;;;0.43;;
75499;SDS011;64076;51.466;7.260;2023-04-25T14:58:28;1.25;;;0.50;;
75499;SDS011;64076;51.466;7.260;2023-04-25T15:00:54;1.40;;;0.65;;
75499;SDS011;64076;51.466;7.260;2023-04-25T15:03:20;1.50;;;0.40;;
75499;SDS011;64076;51.466;7.260;2023-04-25T15:05:46;2.33;;;0.50;;
75499;SDS011;64076;51.466;7.260;2023-04-25T15:08:12;1.60;;;0.50;;
75499;SDS011;64076;51.466;7.260;2023-04-25T15:10:38;1.80;;;0.50;;